Time;durP1;ratioP1;P1;durP2;ratioP2;P2;SDS_P1;SDS_P2;PMS_P1;PMS_P2;Temp;Humidity;BMP_temperature;BMP_pressure;BME280_temperature;BME280_humidity;BME280_pressure;Samples;Min_cycle;Max_cycle;Signal;HPM_P1;HPM_P2
2024/01/12 00:00:35;;;;;;;33.00;22.27;;;;;;;-1.05;100.00;96900.78;5050265;28;20488;-69
2024/01/12 00:03:02;;;;;;;33.78;22.85;;;;;;;-1.05;100.00;96905.97;5052349;28;20052;-69
2024/01/12 00:05:28;;;;;;;30.92;22.80;;;;;;;-1.04;100.00;96905.94;5052027;28;20072;-69
2024/01/12 00:07:53;;;;;;;29.27;22.55;;;;;;;-1.03;100.00;96909.34;5049462;28;20048;-69
2024/01/12 00:10:19;;;;;;;32.22;23.55;;;;;;;-1.10;100.00;96905.25;5050622;28;20032;-69
2024/01/12 00:12:45;;;;;;;32.17;22.38;;;;;;;-1.09;100.00;96909.53;5050487;28;20032;-69
2024/01/12 00:15:10;;;;;;;27.48;21.67;;;;;;;-1.16;100.00;96906.25;5048006;28;20021;-69
2024/01/12 00:17:35;;;;;;;31.08;20.77;;;;;;;-1.21;100.00;96901.22;5050750;28;20056;-69
2024/01/12 00:20:02;;;;;;;28.02;20.23;;;;;;;-1.20;100.00;96902.91;5049257;28;20033;-69
2024/01/12 00:22:27;;;;;;;29.52;21.33;;;;;;;-1.14;100.00;96901.03;5049205;28;20036;-69
2024/01/12 00:24:53;;;;;;;30.20;24.25;;;;;;;-1.17;100.00;96899.38;5045369;28;20030;-68
2024/01/12 00:27:18;;;;;;;34.38;24.75;;;;;;;-1.22;100.00;96896.91;5044357;28;20044;-69
2024/01/12 00:29:43;;;;;;;35.25;25.48;;;;;;;-1.22;100.00;96896.06;5049404;28;20037;-69
2024/01/12 00:32:09;;;;;;;34.05;23.48;;;;;;;-1.22;100.00;96891.72;5049169;28;20108;-69
2024/01/12 00:34:34;;;;;;;35.40;24.85;;;;;;;-1.25;100.00;96890.97;5049799;28;20033;-69
2024/01/12 00:37:00;;;;;;;37.33;25.42;;;;;;;-1.25;100.00;96896.97;5051353;28;20044;-69
2024/01/12 00:39:26;;;;;;;37.28;25.30;;;;;;;-1.23;100.00;96897.78;5046608;28;20037;-69
2024/01/12 00:41:52;;;;;;;43.72;26.90;;;;;;;-1.14;100.00;96895.88;5052353;28;20021;-69
2024/01/12 00:44:18;;;;;;;38.42;25.00;;;;;;;-1.14;100.00;96891.53;5054591;28;20041;-69
2024/01/12 00:46:44;;;;;;;35.83;26.73;;;;;;;-1.12;100.00;96894.09;5051426;28;20109;-69
2024/01/12 00:49:10;;;;;;;37.20;23.70;;;;;;;-1.11;100.00;96896.63;5046348;28;20130;-69
2024/01/12 00:51:36;;;;;;;37.00;26.08;;;;;;;-1.14;100.00;96893.28;5053559;28;20029;-69
2024/01/12 00:54:02;;;;;;;33.65;23.88;;;;;;;-1.09;100.00;96894.88;5053695;28;20079;-69
2024/01/12 00:56:27;;;;;;;33.63;24.67;;;;;;;-1.13;100.00;96884.66;5054039;28;20025;-68
2024/01/12 00:58:53;;;;;;;36.78;25.27;;;;;;;-1.11;100.00;96895.78;5046344;28;20036;-69
2024/01/12 01:01:18;;;;;;;36.53;25.17;;;;;;;-1.11;100.00;96895.78;5054823;28;20045;-69
2024/01/12 01:03:43;;;;;;;36.10;24.10;;;;;;;-1.20;100.00;96895.16;5054586;28;20049;-70
2024/01/12 01:06:09;;;;;;;37.08;26.65;;;;;;;-1.21;100.00;96896.03;5048009;28;20037;-70
2024/01/12 01:08:34;;;;;;;36.75;26.38;;;;;;;-1.24;100.00;96897.84;5054374;28;20033;-70
2024/01/12 01:11:00;;;;;;;39.92;26.30;;;;;;;-1.26;100.00;96900.47;5033762;28;20048;-69
2024/01/12 01:13:25;;;;;;;37.72;25.77;;;;;;;-1.28;100.00;96899.66;5053303;28;20086;-70
2024/01/12 01:15:50;;;;;;;34.08;25.48;;;;;;;-1.23;100.00;96897.78;5053115;28;20443;-69
2024/01/12 01:18:17;;;;;;;35.67;24.48;;;;;;;-1.24;100.00;96893.50;5051653;28;20608;-69
2024/01/12 01:20:43;;;;;;;35.55;25.67;;;;;;;-1.26;100.00;96897.88;5054172;28;20072;-70
2024/01/12 01:23:09;;;;;;;43.25;26.20;;;;;;;-1.20;100.00;96902.03;5053950;28;20025;-69
2024/01/12 01:25:36;;;;;;;36.63;24.98;;;;;;;-1.19;100.00;96899.44;5053334;28;20030;-70
2024/01/12 01:28:02;;;;;;;38.22;25.70;;;;;;;-1.13;100.00;96902.75;5041591;28;20112;-69
2024/01/12 01:30:27;;;;;;;35.90;25.30;;;;;;;-1.22;100.00;96901.25;5050852;28;20065;-69
2024/01/12 01:32:53;;;;;;;34.10;24.88;;;;;;;-1.25;100.00;96902.16;5045956;28;20075;-70
2024/01/12 01:35:18;;;;;;;36.03;24.88;;;;;;;-1.23;100.00;96904.72;5054475;28;20171;-69
2024/01/12 01:37:44;;;;;;;36.33;25.45;;;;;;;-1.24;100.00;96906.44;5050627;28;20087;-69
2024/01/12 01:40:09;;;;;;;35.63;24.25;;;;;;;-1.18;100.00;96910.59;5046510;28;20029;-69
2024/01/12 01:42:34;;;;;;;43.53;26.42;;;;;;;-1.17;100.00;96917.47;5055917;28;20120;-69
2024/01/12 01:45:01;;;;;;;37.92;25.05;;;;;;;-1.22;100.00;96921.91;5052128;28;20025;-69
2024/01/12 01:47:27;;;;;;;36.03;25.67;;;;;;;-1.21;100.00;96921.88;5045536;28;20057;-70
2024/01/12 01:49:53;;;;;;;37.25;27.27;;;;;;;-1.22;100.00;96909.81;5054156;28;20043;-69
2024/01/12 01:52:20;;;;;;;42.20;25.92;;;;;;;-1.26;100.00;96920.31;5044414;28;20478;-70
2024/01/12 01:54:46;;;;;;;40.20;27.38;;;;;;;-1.28;100.00;96919.50;5049812;28;20052;-69
2024/01/12 01:57:12;;;;;;;38.47;27.67;;;;;;;-1.29;100.00;96921.22;5043613;28;20025;-69
2024/01/12 01:59:39;;;;;;;38.00;26.42;;;;;;;-1.31;100.00;96923.84;5048569;28;20059;-70
2024/01/12 02:02:05;;;;;;;37.17;27.30;;;;;;;-1.32;100.00;96921.28;5053725;28;20028;-70
2024/01/12 02:04:31;;;;;;;36.70;26.67;;;;;;;-1.31;100.00;96915.25;5037657;28;20029;-69
2024/01/12 02:06:56;;;;;;;33.63;24.00;;;;;;;-1.34;100.00;96918.75;5042675;28;20029;-69
2024/01/12 02:09:23;;;;;;;40.72;26.88;;;;;;;-1.32;100.00;96921.28;5043632;28;20104;-70
2024/01/12 02:11:49;;;;;;;37.05;26.02;;;;;;;-1.30;100.00;96914.34;5051802;28;20039;-70
2024/01/12 02:14:14;;;;;;;31.05;23.98;;;;;;;-1.30;100.00;96911.78;5047396;28;20028;-70
2024/01/12 02:16:41;;;;;;;32.72;23.90;;;;;;;-1.24;100.00;96911.59;5045895;28;20116;-70
2024/01/12 02:19:06;;;;;;;36.30;25.58;;;;;;;-1.19;100.00;96912.34;5044180;28;20049;-70
2024/01/12 02:21:31;;;;;;;36.63;25.98;;;;;;;-1.25;100.00;96907.31;5049586;28;20033;-69
2024/01/12 02:23:57;;;;;;;40.20;27.52;;;;;;;-1.29;100.00;96903.13;5050813;28;20368;-69
2024/01/12 02:26:23;;;;;;;37.15;26.67;;;;;;;-1.36;100.00;96909.34;5053923;28;20029;-69
2024/01/12 02:28:48;;;;;;;38.35;24.83;;;;;;;-1.37;100.00;96912.81;5045058;28;20033;-70
2024/01/12 02:31:17;;;;;;;37.15;26.48;;;;;;;-1.37;100.00;96905.91;5040458;28;20091;-69
2024/01/12 02:33:43;;;;;;;35.50;25.27;;;;;;;-1.36;100.00;96907.59;5050551;28;20031;-69
2024/01/12 02:36:08;;;;;;;35.97;27.13;;;;;;;-1.32;100.00;96905.78;5052488;28;20401;-70
2024/01/12 02:38:35;;;;;;;35.03;25.75;;;;;;;-1.31;100.00;96900.59;5042241;28;20112;-70
2024/01/12 02:41:00;;;;;;;34.80;24.98;;;;;;;-1.29;100.00;96903.13;5053546;28;20107;-69
2024/01/12 02:43:25;;;;;;;35.33;25.08;;;;;;;-1.28;100.00;96904.81;5049703;28;20059;-69
2024/01/12 02:45:51;;;;;;;33.78;23.98;;;;;;;-1.29;100.00;96897.97;5048656;28;20150;-69
2024/01/12 02:48:16;;;;;;;36.92;26.13;;;;;;;-1.29;100.00;96897.97;5048232;28;20052;-69
2024/01/12 02:50:41;;;;;;;39.35;26.83;;;;;;;-1.30;100.00;96896.25;5044382;28;20424;-69
2024/01/12 02:53:07;;;;;;;36.40;28.75;;;;;;;-1.31;100.00;96898.00;5045218;28;20037;-69
2024/01/12 02:55:32;;;;;;;37.03;25.27;;;;;;;-1.31;100.00;96894.56;5040630;28;20559;-69
2024/01/12 02:57:58;;;;;;;35.35;24.30;;;;;;;-1.29;100.00;96892.78;5065087;28;20021;-69
2024/01/12 03:00:24;;;;;;;34.60;24.67;;;;;;;-1.20;100.00;96899.47;5052472;28;20048;-69
2024/01/12 03:02:50;;;;;;;38.63;26.20;;;;;;;-1.14;100.00;96904.47;5048885;28;20060;-69
2024/01/12 03:05:15;;;;;;;32.80;24.40;;;;;;;-1.19;100.00;96903.75;5039025;28;20104;-69
2024/01/12 03:07:40;;;;;;;34.67;24.63;;;;;;;-1.19;100.00;96903.75;5040626;28;20032;-69
2024/01/12 03:10:06;;;;;;;34.88;23.67;;;;;;;-1.17;100.00;96908.00;5041932;28;20405;-69
2024/01/12 03:12:31;;;;;;;37.22;25.92;;;;;;;-1.19;100.00;96912.34;5046844;28;20098;-69
2024/01/12 03:14:57;;;;;;;39.38;25.55;;;;;;;-1.28;100.00;96910.00;5050542;28;20021;-69
2024/01/12 03:17:22;;;;;;;38.40;25.13;;;;;;;-1.20;100.00;96912.38;5043227;28;20457;-70
2024/01/12 03:19:47;;;;;;;34.95;24.27;;;;;;;-1.15;100.00;96915.69;5047080;28;20071;-69
2024/01/12 03:22:13;;;;;;;40.03;26.05;;;;;;;-1.27;100.00;96919.44;5050699;28;20027;-69
2024/01/12 03:24:38;;;;;;;37.88;27.25;;;;;;;-1.19;100.00;96914.06;5049092;28;20032;-69
2024/01/12 03:27:04;;;;;;;38.90;25.70;;;;;;;-1.27;100.00;96923.78;5046192;28;20036;-69
2024/01/12 03:29:29;;;;;;;39.03;25.55;;;;;;;-1.25;100.00;96920.25;5062003;28;20060;-69
2024/01/12 03:31:55;;;;;;;35.47;25.08;;;;;;;-1.30;100.00;96916.94;5044222;28;20558;-69
2024/01/12 03:34:20;;;;;;;32.05;24.50;;;;;;;-1.36;100.00;96920.50;5048287;28;20029;-72
2024/01/12 03:36:45;;;;;;;36.00;24.52;;;;;;;-1.31;100.00;96928.16;5050333;28;20033;-69
2024/01/12 03:39:11;;;;;;;32.72;21.92;;;;;;;-1.27;100.00;96916.84;5046952;28;20108;-69
2024/01/12 03:41:36;;;;;;;33.17;22.30;;;;;;;-1.22;100.00;96925.34;5050493;28;20029;-69
2024/01/12 03:44:01;;;;;;;32.78;22.73;;;;;;;-1.29;100.00;96923.78;5043946;28;20079;-69
2024/01/12 03:46:27;;;;;;;30.50;22.05;;;;;;;-1.27;100.00;96932.34;5042745;28;20056;-69
2024/01/12 03:48:52;;;;;;;32.83;23.48;;;;;;;-1.25;100.00;96930.56;5050708;28;20122;-69
2024/01/12 03:51:17;;;;;;;37.58;23.00;;;;;;;-1.32;100.00;96935.06;5051882;28;20025;-69
2024/01/12 03:53:45;;;;;;;32.38;22.25;;;;;;;-1.37;100.00;96925.75;5052127;28;20056;-69
2024/01/12 03:56:10;;;;;;;28.15;20.98;;;;;;;-1.30;100.00;96928.13;5048755;28;20021;-69
2024/01/12 03:58:38;;;;;;;31.60;23.27;;;;;;;-1.29;100.00;96931.56;5044228;28;20067;-69
2024/01/12 04:01:06;;;;;;;35.13;23.90;;;;;;;-1.26;100.00;96931.47;5050962;28;20029;-69
2024/01/12 04:03:31;;;;;;;30.90;21.92;;;;;;;-1.24;100.00;96918.53;5055512;28;20080;-69
2024/01/12 04:05:56;;;;;;;30.80;21.92;;;;;;;-1.21;100.00;96918.44;5057706;28;20494;-69
2024/01/12 04:08:22;;;;;;;30.95;22.30;;;;;;;-1.29;100.00;96918.63;5050955;28;20447;-69
2024/01/12 04:10:47;;;;;;;26.50;20.63;;;;;;;-1.27;100.00;96921.19;5051815;28;20036;-69
2024/01/12 04:13:13;;;;;;;31.27;21.30;;;;;;;-1.26;100.00;96917.72;5050910;28;20405;-69
2024/01/12 04:15:38;;;;;;;33.05;21.80;;;;;;;-1.20;100.00;96912.38;5049122;28;20021;-69
2024/01/12 04:18:04;;;;;;;32.40;23.52;;;;;;;-1.29;100.00;96913.47;5057318;28;20021;-69
2024/01/12 04:20:29;;;;;;;33.15;24.45;;;;;;;-1.22;100.00;96909.00;5050907;28;20021;-69
2024/01/12 04:22:54;;;;;;;32.80;22.15;;;;;;;-1.21;100.00;96910.69;5049832;28;20079;-69
2024/01/12 04:25:20;;;;;;;30.73;22.25;;;;;;;-1.22;100.00;96909.00;5039548;28;20402;-69
2024/01/12 04:27:45;;;;;;;28.65;22.40;;;;;;;-1.30;100.00;96907.47;5048232;28;20025;-69
2024/01/12 04:30:11;;;;;;;34.30;23.92;;;;;;;-1.22;100.00;96904.66;5050732;28;20107;-69
2024/01/12 04:32:36;;;;;;;26.60;21.73;;;;;;;-1.32;100.00;96904.06;5042101;28;20021;-69
2024/01/12 04:35:02;;;;;;;30.67;22.20;;;;;;;-1.34;100.00;96902.41;5045242;28;20049;-69
2024/01/12 04:37:27;;;;;;;29.25;21.88;;;;;;;-1.37;100.00;96908.47;5041130;28;20060;-69
2024/01/12 04:39:53;;;;;;;29.85;22.15;;;;;;;-1.36;100.00;96906.75;5048879;28;20079;-69
2024/01/12 04:42:18;;;;;;;29.63;21.83;;;;;;;-1.35;100.00;96909.28;5052777;28;20022;-69
2024/01/12 04:44:43;;;;;;;30.55;22.48;;;;;;;-1.36;100.00;96915.34;5037863;28;20036;-69
2024/01/12 04:47:09;;;;;;;28.75;22.92;;;;;;;-1.35;100.00;96911.03;5053118;28;20073;-69
2024/01/12 04:49:35;;;;;;;35.17;24.98;;;;;;;-1.31;100.00;96910.06;5057052;28;20082;-69
2024/01/12 04:52:00;;;;;;;29.58;21.75;;;;;;;-1.34;100.00;96907.56;5042067;28;20496;-69
2024/01/12 04:54:25;;;;;;;31.48;23.50;;;;;;;-1.36;100.00;96902.44;5048934;28;20083;-69
2024/01/12 04:56:51;;;;;;;28.38;21.35;;;;;;;-1.27;100.00;96910.84;5052576;28;20021;-69
2024/01/12 04:59:16;;;;;;;27.63;21.73;;;;;;;-1.31;100.00;96908.34;5045622;28;20531;-69
2024/01/12 05:01:41;;;;;;;29.58;21.33;;;;;;;-1.33;100.00;96909.25;5047312;28;20025;-69
2024/01/12 05:04:07;;;;;;;28.38;20.17;;;;;;;-1.33;100.00;96914.44;5055174;28;20859;-69
2024/01/12 05:06:32;;;;;;;29.02;20.35;;;;;;;-1.34;100.00;96930.81;5055332;28;20017;-69
2024/01/12 05:08:58;;;;;;;34.97;22.27;;;;;;;-1.35;100.00;96929.97;5050903;28;20473;-69
2024/01/12 05:11:25;;;;;;;28.90;21.25;;;;;;;-1.37;100.00;96934.31;5054727;28;20490;-69
2024/01/12 05:13:51;;;;;;;24.88;19.40;;;;;;;-1.33;100.00;96914.44;5054572;28;20029;-69
2024/01/12 05:16:16;;;;;;;23.70;19.25;;;;;;;-1.36;100.00;96930.84;5051691;28;20020;-69
2024/01/12 05:18:42;;;;;;;29.00;20.88;;;;;;;-1.40;100.00;96933.56;5051172;28;20029;-69
2024/01/12 05:21:08;;;;;;;31.33;21.25;;;;;;;-1.37;100.00;96933.50;5055725;28;20048;-69
2024/01/12 05:23:33;;;;;;;36.17;21.77;;;;;;;-1.41;100.00;96934.47;5044390;28;20029;-69
2024/01/12 05:25:59;;;;;;;28.88;21.67;;;;;;;-1.42;100.00;96932.75;5040155;28;20028;-69
2024/01/12 05:28:24;;;;;;;33.80;23.42;;;;;;;-1.48;100.00;96926.00;5056572;28;20025;-69
2024/01/12 05:30:49;;;;;;;36.55;25.20;;;;;;;-1.45;100.00;96929.34;5045552;28;20048;-69
2024/01/12 05:33:15;;;;;;;33.45;22.98;;;;;;;-1.40;100.00;96926.66;5056412;28;20021;-69
2024/01/12 05:35:40;;;;;;;32.33;23.48;;;;;;;-1.45;100.00;96913.00;5055486;28;20685;-69
2024/01/12 05:38:06;;;;;;;29.75;21.58;;;;;;;-1.50;100.00;96914.84;5056323;28;20028;-69
2024/01/12 05:40:31;;;;;;;37.53;24.95;;;;;;;-1.47;100.00;96920.78;5055749;28;20028;-68
2024/01/12 05:42:56;;;;;;;71.43;38.25;;;;;;;-1.48;100.00;96923.41;5054817;28;20039;-69
2024/01/12 05:45:22;;;;;;;43.13;26.95;;;;;;;-1.47;100.00;96936.28;5042138;28;20056;-69
2024/01/12 05:47:47;;;;;;;33.30;23.08;;;;;;;-1.45;100.00;96929.34;5051982;28;20045;-69
2024/01/12 05:50:13;;;;;;;35.47;22.38;;;;;;;-1.42;100.00;96932.75;5054074;28;20029;-69
2024/01/12 05:52:38;;;;;;;37.33;24.30;;;;;;;-1.43;100.00;96936.22;5054692;28;20039;-69
2024/01/12 05:55:04;;;;;;;37.03;24.90;;;;;;;-1.47;100.00;96933.69;5055507;28;20536;-69
2024/01/12 05:57:31;;;;;;;36.47;25.63;;;;;;;-1.49;100.00;96932.06;5054951;28;20047;-70
2024/01/12 05:59:57;;;;;;;35.50;24.20;;;;;;;-1.49;100.00;96940.63;5053601;28;20101;-69
2024/01/12 06:02:22;;;;;;;33.80;24.60;;;;;;;-1.51;100.00;96934.66;5056151;28;20056;-69
2024/01/12 06:04:47;;;;;;;39.05;24.55;;;;;;;-1.36;100.00;96948.94;5055579;28;20020;-70
2024/01/12 06:07:13;;;;;;;66.60;36.83;;;;;;;-1.41;100.00;96940.47;5055885;28;20025;-69
2024/01/12 06:09:40;;;;;;;37.95;25.98;;;;;;;-1.50;100.00;96936.34;5050783;28;20108;-69
2024/01/12 06:12:06;;;;;;;41.08;29.92;;;;;;;-1.43;100.00;96946.56;5036157;28;20100;-70
2024/01/12 06:14:32;;;;;;;46.10;34.13;;;;;;;-1.49;100.00;96943.22;5049778;28;20025;-69
2024/01/12 06:16:57;;;;;;;50.72;37.63;;;;;;;-1.49;100.00;96948.38;5050221;28;20025;-69
2024/01/12 06:19:24;;;;;;;38.75;25.58;;;;;;;-1.50;100.00;96951.03;5054954;28;20029;-69
2024/01/12 06:21:49;;;;;;;38.60;26.65;;;;;;;-1.56;100.00;96949.44;5054823;28;20043;-69
2024/01/12 06:24:15;;;;;;;41.55;29.55;;;;;;;-1.54;100.00;96945.06;5049381;28;20029;-69
2024/01/12 06:26:43;;;;;;;47.97;30.50;;;;;;;-1.56;100.00;96944.25;5054013;28;20059;-69
2024/01/12 06:29:08;;;;;;;38.58;25.58;;;;;;;-1.53;100.00;96944.19;5050435;28;20029;-69
2024/01/12 06:31:34;;;;;;;55.90;34.10;;;;;;;-1.60;100.00;96946.06;5040518;28;20083;-69
2024/01/12 06:33:59;;;;;;;39.42;25.92;;;;;;;-1.60;100.00;96951.22;5049248;28;20053;-69
2024/01/12 06:36:25;;;;;;;36.22;23.23;;;;;;;-1.54;100.00;96950.25;5050122;28;20033;-69
2024/01/12 06:38:50;;;;;;;39.13;26.38;;;;;;;-1.61;100.00;96948.69;5051842;28;20584;-69
2024/01/12 06:41:15;;;;;;;33.67;24.02;;;;;;;-1.56;100.00;96944.25;5052827;28;20033;-69
2024/01/12 06:43:41;;;;;;;33.22;24.85;;;;;;;-1.58;100.00;96953.78;5052018;28;20059;-68
2024/01/12 06:46:06;;;;;;;35.25;25.00;;;;;;;-1.61;100.00;96948.69;5051768;28;20095;-69
2024/01/12 06:48:32;;;;;;;40.67;25.42;;;;;;;-1.56;100.00;96948.56;5050402;28;20053;-69
2024/01/12 06:50:57;;;;;;;34.65;22.83;;;;;;;-1.53;100.00;96951.09;5047807;28;20024;-69
2024/01/12 06:53:23;;;;;;;56.70;35.08;;;;;;;-1.59;100.00;96957.25;5039207;28;20603;-69
2024/01/12 06:55:48;;;;;;;31.00;23.55;;;;;;;-1.68;100.00;96960.03;5037722;28;20021;-69
2024/01/12 06:58:14;;;;;;;51.38;29.75;;;;;;;-1.70;100.00;96964.38;5048346;28;20725;-69
2024/01/12 07:00:39;;;;;;;39.28;25.85;;;;;;;-1.69;100.00;96966.09;5053112;28;20032;-68
2024/01/12 07:03:06;;;;;;;60.35;35.45;;;;;;;-1.70;100.00;96956.66;5045883;28;20113;-70
2024/01/12 07:05:31;;;;;;;46.35;29.58;;;;;;;-1.74;100.00;96959.31;5047501;28;20070;-70
2024/01/12 07:07:57;;;;;;;37.17;25.38;;;;;;;-1.75;100.00;96960.19;5052232;28;20021;-68
2024/01/12 07:10:22;;;;;;;40.65;26.45;;;;;;;-1.60;100.00;96953.81;5048005;28;20082;-69
2024/01/12 07:12:51;;;;;;;36.10;24.52;;;;;;;-1.60;100.00;96956.41;5039513;28;20502;-69
2024/01/12 07:15:17;;;;;;;41.45;26.83;;;;;;;-1.56;100.00;96969.22;5047711;28;20021;-69
2024/01/12 07:17:43;;;;;;;38.50;26.20;;;;;;;-1.54;100.00;96965.75;5050626;28;20635;-70
2024/01/12 07:20:10;;;;;;;36.92;26.45;;;;;;;-1.52;100.00;96965.72;5053999;28;20028;-69
2024/01/12 07:22:35;;;;;;;36.67;25.77;;;;;;;-1.50;100.00;96962.19;5049732;28;20021;-69
2024/01/12 07:25:01;;;;;;;35.90;25.83;;;;;;;-1.44;100.00;96968.94;5051851;28;20035;-71
2024/01/12 07:27:26;;;;;;;37.50;26.20;;;;;;;-1.45;100.00;96967.25;5049040;28;20116;-69
2024/01/12 07:29:52;;;;;;;37.00;24.42;;;;;;;-1.37;100.00;96969.66;5053561;28;20029;-69
2024/01/12 07:32:17;;;;;;;33.85;25.70;;;;;;;-1.43;100.00;96980.16;5050822;28;20037;-69
2024/01/12 07:34:42;;;;;;;34.70;25.88;;;;;;;-1.46;100.00;96987.06;5042713;28;20104;-70
2024/01/12 07:37:08;;;;;;;39.65;26.38;;;;;;;-1.41;100.00;96992.13;5048509;28;20024;-69
2024/01/12 07:39:33;;;;;;;41.40;26.17;;;;;;;-1.43;100.00;96985.31;5044188;28;20060;-68
2024/01/12 07:41:58;;;;;;;40.35;27.42;;;;;;;-1.47;100.00;96990.53;5055057;28;20035;-68
2024/01/12 07:44:24;;;;;;;36.80;25.10;;;;;;;-1.48;100.00;96988.00;5055299;28;20414;-67
2024/01/12 07:46:49;;;;;;;37.92;26.90;;;;;;;-1.57;100.00;96986.47;5051006;28;20026;-69
2024/01/12 07:49:15;;;;;;;35.78;26.77;;;;;;;-1.55;100.00;96982.13;5050861;28;20072;-69
2024/01/12 07:51:41;;;;;;;37.80;26.63;;;;;;;-1.50;100.00;96979.44;5054848;28;20060;-70
2024/01/12 07:54:06;;;;;;;35.78;26.05;;;;;;;-1.56;100.00;96967.50;5048130;28;20462;-70
2024/01/12 07:56:31;;;;;;;36.80;27.50;;;;;;;-1.51;100.00;96963.06;5044527;28;20132;-70
2024/01/12 07:58:57;;;;;;;37.88;26.63;;;;;;;-1.50;100.00;96962.19;5048188;28;20055;-70
2024/01/12 08:01:23;;;;;;;31.42;24.80;;;;;;;-1.49;100.00;96963.88;5055096;28;20055;-70
2024/01/12 08:03:48;;;;;;;34.33;25.20;;;;;;;-1.49;100.00;96957.88;5056673;28;20021;-70
2024/01/12 08:06:15;;;;;;;39.10;26.40;;;;;;;-1.40;100.00;96957.66;5055080;28;20512;-70
2024/01/12 08:08:40;;;;;;;36.25;27.50;;;;;;;-1.34;100.00;96957.50;5048386;28;20501;-70
2024/01/12 08:11:05;;;;;;;33.13;24.23;;;;;;;-1.33;100.00;96958.34;5050290;28;20028;-70
2024/01/12 08:13:31;;;;;;;41.05;30.38;;;;;;;-1.44;100.00;96953.44;5042678;28;20597;-70
2024/01/12 08:15:57;;;;;;;47.40;30.83;;;;;;;-1.46;100.00;96953.47;5053414;28;20029;-70
2024/01/12 08:18:22;;;;;;;47.20;31.90;;;;;;;-1.42;100.00;96950.84;5055886;28;20036;-70
2024/01/12 08:20:48;;;;;;;40.45;27.73;;;;;;;-1.40;100.00;96957.66;5054317;28;20033;-70
2024/01/12 08:23:15;;;;;;;39.67;27.75;;;;;;;-1.38;100.00;96963.63;5046742;28;20170;-70
2024/01/12 08:25:41;;;;;;;43.25;25.92;;;;;;;-1.33;100.00;96969.56;5054329;28;20039;-70
2024/01/12 08:28:07;;;;;;;36.90;25.35;;;;;;;-1.39;100.00;96966.28;5047379;28;20029;-70
2024/01/12 08:30:33;;;;;;;33.17;25.17;;;;;;;-1.41;100.00;96970.63;5047085;28;20033;-70
2024/01/12 08:32:59;;;;;;;32.38;23.50;;;;;;;-1.40;100.00;96967.16;5043009;28;20047;-70
2024/01/12 08:35:26;;;;;;;36.45;24.67;;;;;;;-1.40;100.00;96977.50;5050352;28;20044;-70
2024/01/12 08:37:51;;;;;;;44.35;29.33;;;;;;;-1.39;100.00;96976.59;5055119;28;20021;-70
2024/01/12 08:40:17;;;;;;;35.60;26.27;;;;;;;-1.31;100.00;96977.25;5047481;28;20048;-70
2024/01/12 08:42:42;;;;;;;76.85;40.70;;;;;;;-1.35;100.00;96986.81;5055120;28;20074;-70
2024/01/12 08:45:08;;;;;;;53.72;32.10;;;;;;;-1.33;100.00;96985.06;5046077;28;20024;-70
2024/01/12 08:47:33;;;;;;;39.75;26.65;;;;;;;-1.28;100.00;96992.69;5049328;28;20044;-70
2024/01/12 08:49:58;;;;;;;71.38;39.40;;;;;;;-1.25;100.00;96992.59;5053307;28;20028;-70
2024/01/12 08:52:24;;;;;;;47.00;29.83;;;;;;;-1.23;100.00;96998.59;5051164;28;20044;-70
2024/01/12 08:54:50;;;;;;;48.28;30.42;;;;;;;-1.22;100.00;97002.03;5044745;28;20025;-70
2024/01/12 08:57:16;;;;;;;34.33;24.55;;;;;;;-1.17;100.00;96997.59;5047675;28;20379;-70
2024/01/12 08:59:41;;;;;;;34.10;25.02;;;;;;;-1.22;100.00;96992.53;5055861;28;20071;-70
2024/01/12 09:02:06;;;;;;;36.42;26.00;;;;;;;-1.13;100.00;96999.22;5055509;28;20079;-70
2024/01/12 09:04:32;;;;;;;33.80;23.42;;;;;;;-1.04;100.00;97011.06;5055112;28;20025;-69
2024/01/12 09:06:57;;;;;;;28.33;20.20;;;;;;;-0.93;100.00;97006.47;5053488;28;20051;-70
2024/01/12 09:09:23;;;;;;;27.50;20.30;;;;;;;-1.06;100.00;97008.53;5050476;28;20024;-69
2024/01/12 09:11:48;;;;;;;26.40;19.55;;;;;;;-1.03;100.00;96998.09;5054633;28;20016;-70
2024/01/12 09:14:14;;;;;;;28.40;21.27;;;;;;;-0.95;100.00;96999.63;5054487;28;20028;-70
2024/01/12 09:16:39;;;;;;;28.75;21.13;;;;;;;-1.03;100.00;97000.69;5043183;28;20025;-71
2024/01/12 09:19:05;;;;;;;37.50;27.35;;;;;;;-1.05;100.00;96997.31;5049866;28;20108;-70
2024/01/12 09:21:30;;;;;;;49.00;28.45;;;;;;;-0.98;100.00;97004.88;5054942;28;20029;-70
2024/01/12 09:23:55;;;;;;;33.25;24.60;;;;;;;-0.95;100.00;97015.16;5053193;28;20027;-70
2024/01/12 09:26:21;;;;;;;35.45;25.00;;;;;;;-0.99;100.00;97018.72;5050327;28;20031;-70
2024/01/12 09:28:46;;;;;;;42.35;27.63;;;;;;;-0.99;100.00;97009.22;5042470;28;20044;-70
2024/01/12 09:31:12;;;;;;;53.00;32.97;;;;;;;-1.04;100.00;97005.88;5040139;28;20482;-70
2024/01/12 09:33:37;;;;;;;52.13;30.67;;;;;;;-1.02;100.00;97009.28;5045987;28;20021;-70
2024/01/12 09:36:03;;;;;;;38.72;25.95;;;;;;;-1.01;100.00;97010.97;5048940;28;20072;-70
2024/01/12 09:38:29;;;;;;;40.95;28.67;;;;;;;-0.98;100.00;97017.81;5047814;28;20634;-70
2024/01/12 09:40:54;;;;;;;34.25;25.25;;;;;;;-0.98;100.00;97016.09;5050131;28;20029;-70
2024/01/12 09:43:22;;;;;;;34.53;26.27;;;;;;;-0.99;100.00;97014.41;5049330;28;20131;-70
2024/01/12 09:45:50;;;;;;;35.00;26.08;;;;;;;-0.95;100.00;97016.03;5049805;28;20024;-70
2024/01/12 09:48:16;;;;;;;35.60;27.50;;;;;;;-0.97;100.00;97012.63;5050228;28;20048;-70
2024/01/12 09:50:43;;;;;;;27.80;18.90;;;;;;;-1.01;100.00;97010.97;5048784;28;20367;-70
2024/01/12 09:53:09;;;;;;;26.30;20.42;;;;;;;-0.97;100.00;97014.34;5044035;28;20033;-70
2024/01/12 09:55:34;;;;;;;28.55;23.23;;;;;;;-0.94;100.00;97012.53;5053828;28;20074;-70
2024/01/12 09:58:01;;;;;;;30.77;24.05;;;;;;;-0.89;100.00;97008.09;5053750;28;20501;-70
2024/01/12 10:00:28;;;;;;;31.30;21.27;;;;;;;-0.88;100.00;97016.72;5051885;28;20031;-70
2024/01/12 10:02:55;;;;;;;26.52;19.13;;;;;;;-0.87;100.00;97021.84;5053477;28;20052;-71
2024/01/12 10:05:21;;;;;;;26.45;19.73;;;;;;;-0.79;100.00;97031.13;5050732;28;20476;-70
2024/01/12 10:07:46;;;;;;;25.95;19.85;;;;;;;-0.82;100.00;97026.03;5046726;28;20025;-70
2024/01/12 10:10:12;;;;;;;26.60;20.27;;;;;;;-0.81;100.00;97027.72;5051311;28;20017;-70
2024/01/12 10:12:37;;;;;;;27.02;20.33;;;;;;;-0.77;100.00;97030.22;5048508;28;20031;-70
2024/01/12 10:15:05;;;;;;;21.88;17.38;;;;;;;-0.72;100.00;97024.94;5045291;28;20025;-70
2024/01/12 10:17:31;;;;;;;25.10;18.33;;;;;;;-0.68;100.00;97028.25;5048344;28;20068;-70
2024/01/12 10:19:57;;;;;;;23.65;19.63;;;;;;;-0.67;100.00;97020.47;5036599;28;20510;-70
2024/01/12 10:22:32;;;;;;;;;;;;;;;-0.61;100.00;97028.06;5128953;27;20398;-70
2024/01/12 10:24:58;;;;;;;;;;;;;;;-0.66;100.00;97031.69;5114029;28;19912;-70
2024/01/12 10:27:23;;;;;;;18.17;14.50;;;;;;;-0.67;100.00;97019.59;5106020;28;20002;-70
2024/01/12 10:29:49;;;;;;;22.95;17.52;;;;;;;-0.72;100.00;97024.94;5122074;28;20071;-70
2024/01/12 10:32:18;;;;;;;19.02;14.63;;;;;;;-0.65;100.00;97020.44;5099287;28;20040;-70
2024/01/12 10:34:44;;;;;;;25.23;17.67;;;;;;;-0.66;100.00;97011.00;5110396;28;20019;-71
2024/01/12 10:37:11;;;;;;;23.20;17.13;;;;;;;-0.64;100.00;97009.22;5101195;28;20024;-71
2024/01/12 10:39:40;;;;;;;23.73;16.48;;;;;;;-0.69;100.00;97001.56;5102680;28;20028;-71
2024/01/12 10:42:10;;;;;;;24.70;16.98;;;;;;;-0.66;100.00;96998.88;5094176;28;20676;-71
2024/01/12 10:44:39;;;;;;;21.80;15.00;;;;;;;-0.65;100.00;96987.66;5110822;28;20483;-71
2024/01/12 10:47:14;;;;;;;22.20;17.45;;;;;;;-0.58;100.00;96994.34;5110088;28;20020;-71
2024/01/12 10:50:04;;;;;;;23.77;18.02;;;;;;;-0.47;100.00;96986.28;5117542;28;20046;-71
2024/01/12 10:53:07;;;;;;;26.25;19.30;;;;;;;-0.47;100.00;96986.28;5108335;28;20108;-71
2024/01/12 10:55:34;;;;;;;27.40;17.88;;;;;;;-0.48;100.00;96982.00;5108414;28;20020;-71
2024/01/12 10:58:04;;;;;;;26.02;18.52;;;;;;;-0.45;100.00;96984.50;5107873;28;20035;-71
2024/01/12 11:00:32;;;;;;;24.65;18.58;;;;;;;-0.45;100.00;96981.91;5108559;28;20040;-71
2024/01/12 11:02:59;;;;;;;26.35;20.38;;;;;;;-0.48;100.00;96982.00;5116738;28;20062;-71